sensor_id;sensor_type;location;lat;lon;timestamp;temperature;humidity
20045;DHT22;10183;47.808;9.476;2023-04-01T00:00:33;6.30;99.90
20045;DHT22;10183;47.808;9.476;2023-04-01T00:02:59;6.30;99.90
20045;DHT22;10183;47.808;9.476;2023-04-01T00:05:26;6.30;99.90
20045;DHT22;10183;47.808;9.476;2023-04-01T00:07:52;6.30;99.90
20045;DHT22;10183;47.808;9.476;2023-04-01T00:10:18;6.20;99.90
20045;DHT22;10183;47.808;9.476;2023-04-01T00:12:44;6.20;99.90
20045;DHT22;10183;47.808;9.476;2023-04-01T00:15:11;6.20;99.90
20045;DHT22;10183;47.808;9.476;2023-04-01T00:17:38;6.20;99.90
20045;DHT22;10183;47.808;9.476;2023-04-01T00:20:05;6.20;99.90
20045;DHT22;10183;47.808;9.476;2023-04-01T00:22:33;6.10;99.90
20045;DHT22;10183;47.808;9.476;2023-04-01T00:24:59;6.10;99.90
20045;DHT22;10183;47.808;9.476;2023-04-01T00:27:26;6.10;99.90
20045;DHT22;10183;47.808;9.476;2023-04-01T00:29:52;6.10;99.90
20045;DHT22;10183;47.808;9.476;2023-04-01T00:32:18;6.10;99.90
20045;DHT22;10183;47.808;9.476;2023-04-01T00:34:44;6.00;99.90
20045;DHT22;10183;47.808;9.476;2023-04-01T00:37:11;6.00;99.90
20045;DHT22;10183;47.808;9.476;2023-04-01T00:39:37;6.00;99.90
20045;DHT22;10183;47.808;9.476;2023-04-01T00:42:04;5.90;99.90
20045;DHT22;10183;47.808;9.476;2023-04-01T00:44:33;5.90;99.90
20045;DHT22;10183;47.808;9.476;2023-04-01T00:47:00;5.80;99.90
20045;DHT22;10183;47.808;9.476;2023-04-01T00:49:30;5.90;99.90
20045;DHT22;10183;47.808;9.476;2023-04-01T00:52:00;5.70;99.90
20045;DHT22;10183;47.808;9.476;2023-04-01T00:54:29;5.70;99.90
20045;DHT22;10183;47.808;9.476;2023-04-01T00:56:59;5.70;99.90
20045;DHT22;10183;47.808;9.476;2023-04-01T00:59:30;5.70;99.90
20045;DHT22;10183;47.808;9.476;2023-04-01T01:01:57;5.70;99.90
20045;DHT22;10183;47.808;9.476;2023-04-01T01:04:32;5.70;99.90
20045;DHT22;10183;47.808;9.476;2023-04-01T01:07:07;5.60;99.90
20045;DHT22;10183;47.808;9.476;2023-04-01T01:12:16;5.60;99.90
20045;DHT22;10183;47.808;9.476;2023-04-01T01:18:09;5.50;99.90
20045;DHT22;10183;47.808;9.476;2023-04-01T01:32:01;5.40;99.90
20045;DHT22;10183;47.808;9.476;2023-04-01T01:34:37;5.40;99.90
20045;DHT22;10183;47.808;9.476;2023-04-01T01:37:12;5.30;99.90
20045;DHT22;10183;47.808;9.476;2023-04-01T01:39:40;5.30;99.90
20045;DHT22;10183;47.808;9.476;2023-04-01T01:42:10;5.30;99.90
20045;DHT22;10183;47.808;9.476;2023-04-01T01:44:38;5.20;99.90
20045;DHT22;10183;47.808;9.476;2023-04-01T01:47:05;5.20;99.90
20045;DHT22;10183;47.808;9.476;2023-04-01T01:49:33;5.20;99.90
20045;DHT22;10183;47.808;9.476;2023-04-01T01:52:01;5.20;99.90
20045;DHT22;10183;47.808;9.476;2023-04-01T01:54:27;5.10;99.90
20045;DHT22;10183;47.808;9.476;2023-04-01T01:57:04;5.10;99.90
20045;DHT22;10183;47.808;9.476;2023-04-01T01:59:33;5.10;99.90
20045;DHT22;10183;47.808;9.476;2023-04-01T02:02:02;5.20;99.90
20045;DHT22;10183;47.808;9.476;2023-04-01T02:04:39;5.20;99.90
20045;DHT22;10183;47.808;9.476;2023-04-01T02:07:31;5.20;99.90
20045;DHT22;10183;47.808;9.476;2023-04-01T02:09:58;5.20;99.90
20045;DHT22;10183;47.808;9.476;2023-04-01T02:12:24;5.20;99.90
20045;DHT22;10183;47.808;9.476;2023-04-01T02:14:55;5.20;99.90
20045;DHT22;10183;47.808;9.476;2023-04-01T02:17:26;5.20;99.90
20045;DHT22;10183;47.808;9.476;2023-04-01T02:19:54;5.20;99.90
20045;DHT22;10183;47.808;9.476;2023-04-01T02:22:24;5.20;99.90
20045;DHT22;10183;47.808;9.476;2023-04-01T02:24:54;5.20;99.90
20045;DHT22;10183;47.808;9.476;2023-04-01T02:27:23;5.20;99.90
20045;DHT22;10183;47.808;9.476;2023-04-01T02:29:51;5.20;99.90
20045;DHT22;10183;47.808;9.476;2023-04-01T02:32:19;5.20;99.90
20045;DHT22;10183;47.808;9.476;2023-04-01T02:34:47;5.20;99.90
20045;DHT22;10183;47.808;9.476;2023-04-01T02:37:14;5.20;99.90
20045;DHT22;10183;47.808;9.476;2023-04-01T02:39:40;5.20;99.90
20045;DHT22;10183;47.808;9.476;2023-04-01T02:42:08;5.30;99.90
20045;DHT22;10183;47.808;9.476;2023-04-01T02:44:35;5.30;99.90
20045;DHT22;10183;47.808;9.476;2023-04-01T02:47:01;5.30;99.90
20045;DHT22;10183;47.808;9.476;2023-04-01T02:49:28;5.30;99.90
20045;DHT22;10183;47.808;9.476;2023-04-01T02:51:54;5.30;99.90
20045;DHT22;10183;47.808;9.476;2023-04-01T02:54:20;5.40;99.90
20045;DHT22;10183;47.808;9.476;2023-04-01T02:56:46;5.40;99.90
20045;DHT22;10183;47.808;9.476;2023-04-01T02:59:12;5.40;99.90
20045;DHT22;10183;47.808;9.476;2023-04-01T03:01:38;5.40;99.90
20045;DHT22;10183;47.808;9.476;2023-04-01T03:04:05;5.50;99.90
20045;DHT22;10183;47.808;9.476;2023-04-01T03:06:31;5.50;99.90
20045;DHT22;10183;47.808;9.476;2023-04-01T03:08:57;5.60;99.90
20045;DHT22;10183;47.808;9.476;2023-04-01T03:11:23;5.60;99.90
20045;DHT22;10183;47.808;9.476;2023-04-01T03:13:49;5.50;99.90
20045;DHT22;10183;47.808;9.476;2023-04-01T03:16:15;5.60;99.90
20045;DHT22;10183;47.808;9.476;2023-04-01T03:18:41;5.50;99.90
20045;DHT22;10183;47.808;9.476;2023-04-01T03:21:17;5.50;99.90
20045;DHT22;10183;47.808;9.476;2023-04-01T03:23:44;5.50;99.90
20045;DHT22;10183;47.808;9.476;2023-04-01T03:26:10;5.50;99.90
20045;DHT22;10183;47.808;9.476;2023-04-01T03:28:36;5.50;99.90
20045;DHT22;10183;47.808;9.476;2023-04-01T03:31:03;5.50;99.90
20045;DHT22;10183;47.808;9.476;2023-04-01T03:33:29;5.50;99.90
20045;DHT22;10183;47.808;9.476;2023-04-01T03:35:55;5.50;99.90
20045;DHT22;10183;47.808;9.476;2023-04-01T03:38:21;5.50;99.90
20045;DHT22;10183;47.808;9.476;2023-04-01T03:40:47;5.60;99.90
20045;DHT22;10183;47.808;9.476;2023-04-01T03:43:13;5.60;99.90
20045;DHT22;10183;47.808;9.476;2023-04-01T03:45:50;5.50;99.90
20045;DHT22;10183;47.808;9.476;2023-04-01T03:48:17;5.50;99.90
20045;DHT22;10183;47.808;9.476;2023-04-01T03:50:44;5.60;99.90
20045;DHT22;10183;47.808;9.476;2023-04-01T03:53:10;5.50;99.90
20045;DHT22;10183;47.808;9.476;2023-04-01T03:55:37;5.60;99.90
20045;DHT22;10183;47.808;9.476;2023-04-01T03:58:04;5.50;99.90
20045;DHT22;10183;47.808;9.476;2023-04-01T04:00:31;5.50;99.90
20045;DHT22;10183;47.808;9.476;2023-04-01T04:02:58;5.50;99.90
20045;DHT22;10183;47.808;9.476;2023-04-01T04:05:25;5.50;99.90
20045;DHT22;10183;47.808;9.476;2023-04-01T04:07:52;5.60;99.90
20045;DHT22;10183;47.808;9.476;2023-04-01T04:10:18;5.60;99.90
20045;DHT22;10183;47.808;9.476;2023-04-01T04:12:44;5.50;99.90
20045;DHT22;10183;47.808;9.476;2023-04-01T04:15:11;5.60;99.90
20045;DHT22;10183;47.808;9.476;2023-04-01T04:17:37;5.60;99.90
20045;DHT22;10183;47.808;9.476;2023-04-01T04:20:04;5.70;99.90
20045;DHT22;10183;47.808;9.476;2023-04-01T04:22:30;5.70;99.90
20045;DHT22;10183;47.808;9.476;2023-04-01T04:24:56;5.60;99.90
20045;DHT22;10183;47.808;9.476;2023-04-01T04:27:23;5.60;99.90
20045;DHT22;10183;47.808;9.476;2023-04-01T04:29:49;5.60;99.90
20045;DHT22;10183;47.808;9.476;2023-04-01T04:32:15;5.70;99.90
20045;DHT22;10183;47.808;9.476;2023-04-01T04:34:41;5.60;99.90
20045;DHT22;10183;47.808;9.476;2023-04-01T04:37:07;5.70;99.90
20045;DHT22;10183;47.808;9.476;2023-04-01T04:39:33;5.80;99.90
20045;DHT22;10183;47.808;9.476;2023-04-01T04:42:00;5.80;99.90
20045;DHT22;10183;47.808;9.476;2023-04-01T04:44:26;5.80;99.90
20045;DHT22;10183;47.808;9.476;2023-04-01T04:46:52;5.80;99.90
20045;DHT22;10183;47.808;9.476;2023-04-01T04:49:18;5.80;99.90
20045;DHT22;10183;47.808;9.476;2023-04-01T04:51:44;5.70;99.90
20045;DHT22;10183;47.808;9.476;2023-04-01T04:54:11;5.90;99.90
20045;DHT22;10183;47.808;9.476;2023-04-01T04:56:37;5.80;99.90
20045;DHT22;10183;47.808;9.476;2023-04-01T04:59:03;5.80;99.90
20045;DHT22;10183;47.808;9.476;2023-04-01T05:01:29;5.90;99.90
20045;DHT22;10183;47.808;9.476;2023-04-01T05:03:56;5.80;99.90
20045;DHT22;10183;47.808;9.476;2023-04-01T05:06:22;5.80;99.90
20045;DHT22;10183;47.808;9.476;2023-04-01T05:08:48;5.90;99.90
20045;DHT22;10183;47.808;9.476;2023-04-01T05:11:19;5.80;99.90
20045;DHT22;10183;47.808;9.476;2023-04-01T05:13:46;5.80;99.90
20045;DHT22;10183;47.808;9.476;2023-04-01T05:16:16;5.80;99.90
20045;DHT22;10183;47.808;9.476;2023-04-01T05:18:42;5.70;99.90
20045;DHT22;10183;47.808;9.476;2023-04-01T05:21:10;5.60;99.90
20045;DHT22;10183;47.808;9.476;2023-04-01T05:23:37;5.70;99.90
20045;DHT22;10183;47.808;9.476;2023-04-01T05:26:05;5.60;99.90
20045;DHT22;10183;47.808;9.476;2023-04-01T05:28:31;5.50;99.90
20045;DHT22;10183;47.808;9.476;2023-04-01T05:31:02;5.50;99.90
20045;DHT22;10183;47.808;9.476;2023-04-01T05:33:29;5.50;99.90
20045;DHT22;10183;47.808;9.476;2023-04-01T05:35:56;5.50;99.90
20045;DHT22;10183;47.808;9.476;2023-04-01T05:38:30;5.40;99.90
20045;DHT22;10183;47.808;9.476;2023-04-01T05:41:01;5.40;99.90
20045;DHT22;10183;47.808;9.476;2023-04-01T05:43:27;5.50;99.90
20045;DHT22;10183;47.808;9.476;2023-04-01T05:45:53;5.50;99.90
20045;DHT22;10183;47.808;9.476;2023-04-01T05:48:19;5.50;99.90
20045;DHT22;10183;47.808;9.476;2023-04-01T05:50:46;5.40;99.90
20045;DHT22;10183;47.808;9.476;2023-04-01T05:53:12;5.40;99.90
20045;DHT22;10183;47.808;9.476;2023-04-01T05:55:38;5.50;99.90
20045;DHT22;10183;47.808;9.476;2023-04-01T05:58:04;5.50;99.90
20045;DHT22;10183;47.808;9.476;2023-04-01T06:00:30;5.50;99.90
20045;DHT22;10183;47.808;9.476;2023-04-01T06:02:59;5.50;99.90
20045;DHT22;10183;47.808;9.476;2023-04-01T06:05:29;5.50;99.90
20045;DHT22;10183;47.808;9.476;2023-04-01T06:08:01;5.60;99.90
20045;DHT22;10183;47.808;9.476;2023-04-01T06:11:01;5.60;99.90
20045;DHT22;10183;47.808;9.476;2023-04-01T06:19:13;5.70;99.90
20045;DHT22;10183;47.808;9.476;2023-04-01T06:30:34;5.90;99.90
20045;DHT22;10183;47.808;9.476;2023-04-01T06:41:29;6.00;99.90
20045;DHT22;10183;47.808;9.476;2023-04-01T06:46:47;6.10;99.90
20045;DHT22;10183;47.808;9.476;2023-04-01T06:57:48;6.30;99.90
20045;DHT22;10183;47.808;9.476;2023-04-01T07:00:35;6.30;99.90
20045;DHT22;10183;47.808;9.476;2023-04-01T07:03:24;6.40;99.90
20045;DHT22;10183;47.808;9.476;2023-04-01T07:05:53;6.40;99.90
20045;DHT22;10183;47.808;9.476;2023-04-01T07:08:25;6.40;99.90
20045;DHT22;10183;47.808;9.476;2023-04-01T07:11:01;6.40;99.90
20045;DHT22;10183;47.808;9.476;2023-04-01T07:16:34;6.50;99.90
20045;DHT22;10183;47.808;9.476;2023-04-01T07:21:51;6.60;99.90
20045;DHT22;10183;47.808;9.476;2023-04-01T07:24:29;6.70;99.90
20045;DHT22;10183;47.808;9.476;2023-04-01T07:26:57;6.70;99.90
20045;DHT22;10183;47.808;9.476;2023-04-01T07:29:25;6.80;99.90
20045;DHT22;10183;47.808;9.476;2023-04-01T07:40:01;6.90;99.90
20045;DHT22;10183;47.808;9.476;2023-04-01T07:58:52;6.80;99.90
20045;DHT22;10183;47.808;9.476;2023-04-01T08:01:34;6.90;99.90
20045;DHT22;10183;47.808;9.476;2023-04-01T08:07:10;7.00;99.90
20045;DHT22;10183;47.808;9.476;2023-04-01T08:15:49;7.00;99.90
20045;DHT22;10183;47.808;9.476;2023-04-01T08:18:31;7.00;99.90
20045;DHT22;10183;47.808;9.476;2023-04-01T08:21:02;7.00;99.90
20045;DHT22;10183;47.808;9.476;2023-04-01T08:23:38;7.00;99.90
20045;DHT22;10183;47.808;9.476;2023-04-01T08:31:32;7.00;99.90
20045;DHT22;10183;47.808;9.476;2023-04-01T08:34:03;7.00;99.90
20045;DHT22;10183;47.808;9.476;2023-04-01T08:36:36;6.90;99.90
20045;DHT22;10183;47.808;9.476;2023-04-01T08:39:18;6.90;99.90
20045;DHT22;10183;47.808;9.476;2023-04-01T08:42:04;6.90;99.90
20045;DHT22;10183;47.808;9.476;2023-04-01T08:56:31;7.00;99.90
20045;DHT22;10183;47.808;9.476;2023-04-01T08:59:34;7.00;99.90
20045;DHT22;10183;47.808;9.476;2023-04-01T09:05:11;6.90;99.90
20045;DHT22;10183;47.808;9.476;2023-04-01T09:26:53;6.80;99.90
20045;DHT22;10183;47.808;9.476;2023-04-01T09:29:54;6.80;99.90
20045;DHT22;10183;47.808;9.476;2023-04-01T09:38:04;6.80;99.90
20045;DHT22;10183;47.808;9.476;2023-04-01T09:41:02;6.80;99.90
20045;DHT22;10183;47.808;9.476;2023-04-01T09:44:00;6.70;99.90
20045;DHT22;10183;47.808;9.476;2023-04-01T09:50:03;6.60;99.90
20045;DHT22;10183;47.808;9.476;2023-04-01T09:55:13;6.50;99.90
20045;DHT22;10183;47.808;9.476;2023-04-01T10:17:56;6.60;99.90
20045;DHT22;10183;47.808;9.476;2023-04-01T10:23:15;6.70;99.90
20045;DHT22;10183;47.808;9.476;2023-04-01T10:36:54;7.10;99.90
20045;DHT22;10183;47.808;9.476;2023-04-01T10:39:48;7.10;99.90
20045;DHT22;10183;47.808;9.476;2023-04-01T10:45:30;7.20;99.90
20045;DHT22;10183;47.808;9.476;2023-04-01T11:10:17;7.40;99.90
20045;DHT22;10183;47.808;9.476;2023-04-01T11:29:39;7.10;99.90
20045;DHT22;10183;47.808;9.476;2023-04-01T11:32:31;7.10;99.90
20045;DHT22;10183;47.808;9.476;2023-04-01T11:43:21;7.20;99.90
20045;DHT22;10183;47.808;9.476;2023-04-01T11:53:52;7.50;99.90
20045;DHT22;10183;47.808;9.476;2023-04-01T11:56:49;7.60;99.90
20045;DHT22;10183;47.808;9.476;2023-04-01T12:11:32;7.90;99.90
20045;DHT22;10183;47.808;9.476;2023-04-01T12:16:43;8.00;99.90
20045;DHT22;10183;47.808;9.476;2023-04-01T12:25:19;8.10;99.90
20045;DHT22;10183;47.808;9.476;2023-04-01T12:28:00;8.20;99.90
20045;DHT22;10183;47.808;9.476;2023-04-01T12:36:55;8.20;99.90
20045;DHT22;10183;47.808;9.476;2023-04-01T12:50:02;8.10;99.90
20045;DHT22;10183;47.808;9.476;2023-04-01T12:58:38;8.00;99.90
20045;DHT22;10183;47.808;9.476;2023-04-01T13:03:46;8.30;99.90
20045;DHT22;10183;47.808;9.476;2023-04-01T13:14:39;9.00;99.90
20045;DHT22;10183;47.808;9.476;2023-04-01T13:28:09;8.50;99.90
20045;DHT22;10183;47.808;9.476;2023-04-01T13:30:49;8.10;99.90
20045;DHT22;10183;47.808;9.476;2023-04-01T13:36:15;8.00;99.90
20045;DHT22;10183;47.808;9.476;2023-04-01T13:39:13;7.90;99.90
20045;DHT22;10183;47.808;9.476;2023-04-01T13:47:41;8.10;99.90
20045;DHT22;10183;47.808;9.476;2023-04-01T13:56:13;8.10;99.90
20045;DHT22;10183;47.808;9.476;2023-04-01T13:59:02;8.00;99.90
20045;DHT22;10183;47.808;9.476;2023-04-01T14:01:41;8.10;99.90
20045;DHT22;10183;47.808;9.476;2023-04-01T14:04:43;8.00;99.90
20045;DHT22;10183;47.808;9.476;2023-04-01T14:10:16;8.00;99.90
20045;DHT22;10183;47.808;9.476;2023-04-01T14:15:28;8.00;99.90
20045;DHT22;10183;47.808;9.476;2023-04-01T14:37:31;7.80;99.90
20045;DHT22;10183;47.808;9.476;2023-04-01T14:48:51;7.90;99.90
20045;DHT22;10183;47.808;9.476;2023-04-01T14:51:35;7.90;99.90
20045;DHT22;10183;47.808;9.476;2023-04-01T14:54:13;7.90;99.90
20045;DHT22;10183;47.808;9.476;2023-04-01T14:56:50;7.90;99.90
20045;DHT22;10183;47.808;9.476;2023-04-01T15:01:55;8.00;99.90
20045;DHT22;10183;47.808;9.476;2023-04-01T15:12:26;8.00;99.90
20045;DHT22;10183;47.808;9.476;2023-04-01T15:23:43;8.00;99.90
20045;DHT22;10183;47.808;9.476;2023-04-01T15:31:59;7.80;99.90
20045;DHT22;10183;47.808;9.476;2023-04-01T15:37:49;7.70;99.90
20045;DHT22;10183;47.808;9.476;2023-04-01T15:40:47;7.70;99.90
20045;DHT22;10183;47.808;9.476;2023-04-01T15:45:51;7.70;99.90
20045;DHT22;10183;47.808;9.476;2023-04-01T15:48:53;7.60;99.90
20045;DHT22;10183;47.808;9.476;2023-04-01T15:57:02;7.80;99.90
20045;DHT22;10183;47.808;9.476;2023-04-01T16:02:31;7.70;99.90
20045;DHT22;10183;47.808;9.476;2023-04-01T16:11:13;7.90;99.90
20045;DHT22;10183;47.808;9.476;2023-04-01T16:13:55;7.90;99.90
20045;DHT22;10183;47.808;9.476;2023-04-01T16:19:37;7.90;99.90
20045;DHT22;10183;47.808;9.476;2023-04-01T16:25:28;7.80;99.90
20045;DHT22;10183;47.808;9.476;2023-04-01T16:31:00;7.80;99.90
20045;DHT22;10183;47.808;9.476;2023-04-01T16:36:46;7.70;99.90
20045;DHT22;10183;47.808;9.476;2023-04-01T16:42:56;7.70;99.90
20045;DHT22;10183;47.808;9.476;2023-04-01T16:54:36;7.70;99.90
20045;DHT22;10183;47.808;9.476;2023-04-01T17:02:43;7.60;99.90
20045;DHT22;10183;47.808;9.476;2023-04-01T17:05:12;7.60;99.90
20045;DHT22;10183;47.808;9.476;2023-04-01T17:10:47;7.60;99.90
20045;DHT22;10183;47.808;9.476;2023-04-01T17:13:41;7.60;99.90
20045;DHT22;10183;47.808;9.476;2023-04-01T17:16:26;7.60;99.90
20045;DHT22;10183;47.808;9.476;2023-04-01T17:25:04;7.40;99.90
20045;DHT22;10183;47.808;9.476;2023-04-01T17:30:35;7.40;99.90
20045;DHT22;10183;47.808;9.476;2023-04-01T17:33:07;7.40;99.90
20045;DHT22;10183;47.808;9.476;2023-04-01T17:43:49;7.40;99.90
20045;DHT22;10183;47.808;9.476;2023-04-01T17:46:46;7.30;99.90
20045;DHT22;10183;47.808;9.476;2023-04-01T18:00:00;7.20;99.90
20045;DHT22;10183;47.808;9.476;2023-04-01T18:05:37;7.10;99.90
20045;DHT22;10183;47.808;9.476;2023-04-01T18:08:26;7.10;99.90
20045;DHT22;10183;47.808;9.476;2023-04-01T18:27:38;6.90;99.90
20045;DHT22;10183;47.808;9.476;2023-04-01T18:32:51;6.90;99.90
20045;DHT22;10183;47.808;9.476;2023-04-01T18:38:13;7.00;99.90
20045;DHT22;10183;47.808;9.476;2023-04-01T18:40:50;6.90;99.90
20045;DHT22;10183;47.808;9.476;2023-04-01T18:43:29;7.00;99.90
20045;DHT22;10183;47.808;9.476;2023-04-01T18:46:12;6.90;99.90
20045;DHT22;10183;47.808;9.476;2023-04-01T18:49:02;7.00;99.90
20045;DHT22;10183;47.808;9.476;2023-04-01T18:54:41;6.90;99.90
20045;DHT22;10183;47.808;9.476;2023-04-01T18:57:14;6.90;99.90
20045;DHT22;10183;47.808;9.476;2023-04-01T18:59:46;6.90;99.90
20045;DHT22;10183;47.808;9.476;2023-04-01T19:02:41;7.00;99.90
20045;DHT22;10183;47.808;9.476;2023-04-01T19:05:19;6.90;99.90
20045;DHT22;10183;47.808;9.476;2023-04-01T19:10:37;6.90;99.90
20045;DHT22;10183;47.808;9.476;2023-04-01T19:21:47;6.80;99.90
20045;DHT22;10183;47.808;9.476;2023-04-01T19:32:23;6.80;99.90
20045;DHT22;10183;47.808;9.476;2023-04-01T19:38:19;6.70;99.90
20045;DHT22;10183;47.808;9.476;2023-04-01T19:40:50;6.70;99.90
20045;DHT22;10183;47.808;9.476;2023-04-01T19:43:37;6.70;99.90
20045;DHT22;10183;47.808;9.476;2023-04-01T19:46:26;6.50;99.90
20045;DHT22;10183;47.808;9.476;2023-04-01T19:54:43;6.40;99.90
20045;DHT22;10183;47.808;9.476;2023-04-01T19:57:59;6.30;99.90
20045;DHT22;10183;47.808;9.476;2023-04-01T20:00:53;6.20;99.90
20045;DHT22;10183;47.808;9.476;2023-04-01T20:04:08;6.10;99.90
20045;DHT22;10183;47.808;9.476;2023-04-01T20:06:38;6.00;99.90
20045;DHT22;10183;47.808;9.476;2023-04-01T20:14:28;6.20;99.90
20045;DHT22;10183;47.808;9.476;2023-04-01T20:17:21;6.30;99.90
20045;DHT22;10183;47.808;9.476;2023-04-01T20:19:55;6.20;99.90
20045;DHT22;10183;47.808;9.476;2023-04-01T20:26:02;6.20;99.90
20045;DHT22;10183;47.808;9.476;2023-04-01T20:31:36;6.10;99.90
20045;DHT22;10183;47.808;9.476;2023-04-01T20:34:35;6.20;99.90
20045;DHT22;10183;47.808;9.476;2023-04-01T20:45:41;5.70;99.90
20045;DHT22;10183;47.808;9.476;2023-04-01T20:48:31;5.60;99.90
20045;DHT22;10183;47.808;9.476;2023-04-01T20:51:13;5.60;99.90
20045;DHT22;10183;47.808;9.476;2023-04-01T20:53:44;5.70;99.90
20045;DHT22;10183;47.808;9.476;2023-04-01T21:02:53;5.70;99.90
20045;DHT22;10183;47.808;9.476;2023-04-01T21:20:03;5.50;99.90
20045;DHT22;10183;47.808;9.476;2023-04-01T21:23:16;5.70;99.90
20045;DHT22;10183;47.808;9.476;2023-04-01T21:42:13;5.70;99.90
20045;DHT22;10183;47.808;9.476;2023-04-01T21:56:16;5.40;99.90
20045;DHT22;10183;47.808;9.476;2023-04-01T22:01:54;5.50;99.90
20045;DHT22;10183;47.808;9.476;2023-04-01T22:07:23;5.60;99.90
20045;DHT22;10183;47.808;9.476;2023-04-01T22:10:23;5.40;99.90
20045;DHT22;10183;47.808;9.476;2023-04-01T22:13:03;5.30;99.90
20045;DHT22;10183;47.808;9.476;2023-04-01T22:15:55;5.30;99.90
20045;DHT22;10183;47.808;9.476;2023-04-01T22:18:45;5.10;99.90
20045;DHT22;10183;47.808;9.476;2023-04-01T22:24:20;5.00;99.90
20045;DHT22;10183;47.808;9.476;2023-04-01T22:29:29;5.00;99.90
20045;DHT22;10183;47.808;9.476;2023-04-01T22:40:35;4.90;99.90
20045;DHT22;10183;47.808;9.476;2023-04-01T22:43:09;4.80;99.90
20045;DHT22;10183;47.808;9.476;2023-04-01T22:46:23;4.70;99.90
20045;DHT22;10183;47.808;9.476;2023-04-01T22:49:41;4.60;99.90
20045;DHT22;10183;47.808;9.476;2023-04-01T22:54:53;4.90;99.90
20045;DHT22;10183;47.808;9.476;2023-04-01T23:05:18;5.10;99.90
20045;DHT22;10183;47.808;9.476;2023-04-01T23:10:27;5.10;99.90
20045;DHT22;10183;47.808;9.476;2023-04-01T23:12:59;5.10;99.90
20045;DHT22;10183;47.808;9.476;2023-04-01T23:15:27;4.90;99.90
20045;DHT22;10183;47.808;9.476;2023-04-01T23:18:11;5.10;99.90
20045;DHT22;10183;47.808;9.476;2023-04-01T23:20:58;5.10;99.90
20045;DHT22;10183;47.808;9.476;2023-04-01T23:26:25;4.90;99.90
20045;DHT22;10183;47.808;9.476;2023-04-01T23:28:58;4.80;99.90
20045;DHT22;10183;47.808;9.476;2023-04-01T23:31:32;4.80;99.90
20045;DHT22;10183;47.808;9.476;2023-04-01T23:36:50;4.90;99.90
20045;DHT22;10183;47.808;9.476;2023-04-01T23:39:46;4.90;99.90
20045;DHT22;10183;47.808;9.476;2023-04-01T23:42:32;4.80;99.90
20045;DHT22;10183;47.808;9.476;2023-04-01T23:45:05;4.90;99.90
20045;DHT22;10183;47.808;9.476;2023-04-01T23:47:39;5.00;99.90
20045;DHT22;10183;47.808;9.476;2023-04-01T23:50:10;5.00;99.90
20045;DHT22;10183;47.808;9.476;2023-04-01T23:52:47;5.20;99.90
20045;DHT22;10183;47.808;9.476;2023-04-01T23:55:25;5.10;99.90
20045;DHT22;10183;47.808;9.476;2023-04-01T23:58:56;5.00;99.90
